Time;durP1;ratioP1;P1;durP2;ratioP2;P2;SDS_P1;SDS_P2;PMS_P1;PMS_P2;Temp;Humidity;BMP_temperature;BMP_pressure;BME280_temperature;BME280_humidity;BME280_pressure;Samples;Min_cycle;Max_cycle;Signal;HPM_P1;HPM_P2
2023/01/30 17:35:54;;;;;;;11.77;4.17;;;8.90;74.50;;;10.83;54.57;101467.50;5134383;27;20582;-55
2023/01/30 17:38:21;;;;;;;12.73;3.90;;;8.80;75.10;;;11.03;53.25;101456.72;5108511;28;20219;-52
2023/01/30 17:40:49;;;;;;;12.83;4.07;;;8.80;74.80;;;11.23;53.37;101463.34;5102984;28;20202;-52
2023/01/30 17:43:16;;;;;;;8.30;3.53;;;8.90;74.50;;;11.36;52.32;101454.00;5103920;28;20192;-54
2023/01/30 17:45:43;;;;;;;9.07;3.23;;;8.90;74.30;;;11.47;51.98;101460.78;5094705;28;20280;-53
2023/01/30 17:48:12;;;;;;;13.87;3.97;;;8.90;74.20;;;11.52;51.76;101466.41;5099232;28;20215;-56
2023/01/30 17:50:39;;;;;;;13.90;4.83;;;8.90;74.10;;;11.55;51.87;101463.44;5123318;27;20184;-54
2023/01/30 17:53:07;;;;;;;13.27;4.73;;;8.80;74.30;;;11.56;51.70;101459.81;5076776;27;20254;-54
2023/01/30 17:55:35;;;;;;;15.00;4.43;;;8.80;74.70;;;11.57;51.79;101472.00;5065565;28;20206;-53
2023/01/30 17:58:02;;;;;;;10.43;4.20;;;8.80;74.60;;;11.57;51.99;101469.38;5067211;28;20224;-52
2023/01/30 18:00:29;;;;;;;9.57;3.80;;;8.80;74.50;;;11.57;52.11;101472.84;5068591;28;20181;-52
2023/01/30 18:02:56;;;;;;;13.93;3.80;;;8.80;74.50;;;11.58;52.30;101479.75;5069543;28;20216;-58
2023/01/30 18:05:23;;;;;;;12.87;3.97;;;8.80;74.80;;;11.56;52.10;101491.44;5066047;28;20224;-53
2023/01/30 18:07:50;;;;;;;14.53;4.07;;;8.80;75.00;;;11.52;52.33;101490.13;5069375;28;20228;-55
2023/01/30 18:10:19;;;;;;;9.03;3.73;;;8.80;75.00;;;11.51;52.17;101499.84;5067232;28;20223;-52
2023/01/30 18:12:46;;;;;;;11.40;3.83;;;8.70;74.90;;;11.53;52.32;101511.03;5069243;28;20220;-52
2023/01/30 18:15:15;;;;;;;13.33;4.40;;;8.70;75.20;;;11.56;52.30;101509.88;5070602;28;20190;-53
2023/01/30 18:17:46;;;;;;;18.13;5.30;;;8.70;75.40;;;11.54;52.10;101517.97;5069847;28;20244;-55
2023/01/30 18:20:17;;;;;;;13.67;4.30;;;8.70;75.20;;;11.47;52.23;101516.97;5079263;28;20229;-53
2023/01/30 18:22:46;;;;;;;14.90;4.23;;;8.70;75.30;;;11.45;51.70;101521.56;5078736;28;20368;-52
2023/01/30 18:25:15;;;;;;;25.33;4.50;;;8.60;75.00;;;11.42;51.88;101523.69;5074049;28;20186;-51
2023/01/30 18:27:46;;;;;;;15.30;4.43;;;8.60;75.00;;;11.40;52.27;101528.31;5068929;28;20623;-52
2023/01/30 18:30:15;;;;;;;15.27;3.77;;;8.60;75.00;;;11.37;52.35;101529.44;5054763;28;20178;-52
2023/01/30 18:32:46;;;;;;;16.63;4.07;;;8.60;75.00;;;11.35;52.15;101538.50;5069709;28;20193;-54
2023/01/30 18:35:20;;;;;;;15.87;4.20;;;8.60;75.00;;;11.33;52.49;101538.66;5062266;28;20322;-53
2023/01/30 18:37:48;;;;;;;16.30;4.37;;;8.60;75.10;;;11.32;52.57;101547.56;5066305;28;20225;-50
2023/01/30 18:40:16;;;;;;;14.63;4.37;;;8.60;74.80;;;11.31;51.71;101555.63;5065544;28;20307;-54
2023/01/30 18:42:46;;;;;;;15.50;4.37;;;8.60;74.80;;;11.29;52.03;101557.59;5068593;28;20276;-53
2023/01/30 18:45:13;;;;;;;21.40;4.80;;;8.50;74.70;;;11.26;52.19;101557.91;5058955;28;20627;-56
2023/01/30 18:47:40;;;;;;;11.87;4.03;;;8.50;75.00;;;11.25;52.25;101564.97;5055273;28;20214;-53
2023/01/30 18:50:09;;;;;;;16.13;4.87;;;8.50;75.10;;;11.25;52.45;101564.16;5056429;28;20186;-55
2023/01/30 18:52:36;;;;;;;15.33;5.03;;;8.50;75.30;;;11.25;52.16;101572.06;5055136;28;20195;-55
2023/01/30 18:55:04;;;;;;;15.17;4.77;;;8.40;75.50;;;11.23;52.71;101572.22;5053253;28;20233;-53
2023/01/30 18:57:31;;;;;;;14.63;4.57;;;8.40;75.60;;;11.22;52.10;101575.03;5054932;28;20209;-54
2023/01/30 18:59:59;;;;;;;15.30;5.53;;;8.40;75.50;;;11.21;52.50;101581.28;5055782;28;20201;-53
2023/01/30 19:02:26;;;;;;;24.07;6.37;;;8.40;75.70;;;11.18;52.43;101576.31;5052104;28;20202;-53
2023/01/30 19:04:53;;;;;;;17.73;5.27;;;8.40;75.80;;;11.18;52.90;101586.84;5048400;28;20233;-53
2023/01/30 19:07:20;;;;;;;17.07;5.30;;;8.40;75.90;;;11.18;52.54;101594.75;5059331;28;20621;-55
2023/01/30 19:09:47;;;;;;;16.77;4.40;;;8.40;75.90;;;11.23;52.45;101605.66;5055412;28;20648;-54
2023/01/30 19:15:02;;;;;;;14.90;4.90;;;8.40;76.30;;;11.36;52.57;101627.13;5053937;28;20259;-53
2023/01/30 19:17:29;;;;;;;13.27;4.73;;;8.40;76.50;;;11.41;52.23;101630.13;5041386;28;20228;-56
2023/01/30 19:19:58;;;;;;;12.40;4.33;;;8.50;76.90;;;11.42;53.10;101626.50;5055753;28;20206;-54
2023/01/30 19:22:26;;;;;;;12.10;3.47;;;8.50;76.90;;;11.39;52.36;101642.63;5062298;28;20577;-52
2023/01/30 19:24:53;;;;;;;14.10;3.97;;;8.50;76.70;;;11.37;52.96;101644.59;5060502;28;20205;-55
2023/01/30 19:27:20;;;;;;;12.50;3.87;;;8.50;77.40;;;11.34;53.35;101647.53;5050117;28;20182;-54
2023/01/30 19:29:48;;;;;;;9.07;3.30;;;8.40;77.30;;;11.29;52.96;101647.19;5060277;28;20219;-52
2023/01/30 19:32:17;;;;;;;13.83;4.13;;;8.40;77.30;;;11.25;53.05;101641.41;5037827;28;20198;-54
2023/01/30 19:34:44;;;;;;;8.33;3.40;;;8.40;77.60;;;11.22;53.61;101636.44;5054410;28;20235;-52
2023/01/30 19:37:11;;;;;;;12.13;3.57;;;8.40;77.60;;;11.21;53.23;101649.78;5062024;28;20295;-57
2023/01/30 19:39:38;;;;;;;10.00;3.10;;;8.30;77.50;;;11.19;53.69;101657.84;5061584;28;20220;-53
2023/01/30 19:42:05;;;;;;;7.73;3.67;;;8.30;77.50;;;11.20;53.23;101663.91;5061522;28;20291;-54
2023/01/30 19:44:32;;;;;;;10.93;3.97;;;8.30;77.60;;;11.23;53.53;101689.97;5061045;28;20190;-55
2023/01/30 19:46:59;;;;;;;13.77;4.30;;;8.30;77.80;;;11.22;53.83;101683.88;5062801;28;20220;-58
2023/01/30 19:49:27;;;;;;;12.70;3.80;;;8.30;77.80;;;11.21;53.63;101665.59;5058363;28;20213;-52
2023/01/30 19:51:55;;;;;;;11.33;3.33;;;8.30;77.90;;;11.23;53.37;101684.69;5072811;28;20689;-55
2023/01/30 19:54:22;;;;;;;11.83;3.43;;;8.30;77.90;;;11.25;53.48;101693.28;5057074;28;20216;-54
2023/01/30 19:56:50;;;;;;;10.00;3.40;;;8.30;77.80;;;11.27;53.59;101691.31;5057193;28;20198;-56
2023/01/30 19:59:17;;;;;;;12.57;3.53;;;8.30;77.50;;;11.29;53.61;101695.44;5052776;28;20733;-53
2023/01/30 20:01:44;;;;;;;9.80;3.53;;;8.40;77.50;;;11.31;53.45;101708.47;5054820;28;20205;-55
2023/01/30 20:06:06;;;;;;;9.30;3.13;;;8.40;76.40;;;11.28;52.94;101696.44;5092112;28;20573;-55
2023/01/30 20:08:33;;;;;;;10.33;3.20;;;8.40;77.00;;;11.27;53.28;101701.84;5060574;28;20210;-54
2023/01/30 20:11:06;;;;;;;8.67;3.20;;;8.40;76.60;;;11.21;52.67;101699.84;5048587;28;20616;-54
2023/01/30 20:13:33;;;;;;;9.23;3.30;;;8.30;76.30;;;11.18;52.84;101708.03;5048348;28;20198;-55
2023/01/30 20:16:04;;;;;;;7.57;3.13;;;8.30;76.60;;;11.15;52.87;101714.44;5048091;28;20216;-54
2023/01/30 20:18:35;;;;;;;10.27;3.07;;;8.30;76.70;;;11.14;52.93;101717.25;5059285;28;20278;-52
2023/01/30 20:21:09;;;;;;;7.17;2.67;;;8.30;76.80;;;11.08;53.10;101708.16;5068502;28;20192;-56
2023/01/30 20:23:37;;;;;;;12.57;3.27;;;8.30;76.80;;;11.07;52.96;101710.94;5069045;28;20185;-53
2023/01/30 20:26:05;;;;;;;13.37;3.90;;;8.30;76.50;;;11.04;53.01;101711.25;5053865;28;20201;-54
2023/01/30 20:28:32;;;;;;;11.57;3.57;;;8.30;76.30;;;11.01;53.20;101706.28;5051369;28;20234;-52
2023/01/30 20:31:05;;;;;;;11.47;3.90;;;8.30;76.20;;;10.99;53.33;101718.78;5050867;28;20662;-53
2023/01/30 20:33:32;;;;;;;8.93;3.50;;;8.20;75.90;;;10.95;53.21;101725.34;5051370;28;20200;-54
2023/01/30 20:36:00;;;;;;;7.70;3.57;;;8.20;75.80;;;10.94;52.82;101727.13;5049852;28;20256;-53
2023/01/30 20:38:30;;;;;;;13.23;3.23;;;8.20;75.80;;;10.94;53.16;101713.97;5050789;28;20220;-53
2023/01/30 20:41:02;;;;;;;13.43;3.20;;;8.10;75.90;;;10.95;52.38;101723.53;5059131;28;20254;-52
2023/01/30 20:43:31;;;;;;;14.83;3.30;;;8.10;76.00;;;10.96;52.75;101724.38;5051631;28;20221;-53
2023/01/30 20:46:04;;;;;;;14.60;4.53;;;8.10;76.00;;;10.95;52.79;101734.06;5051171;28;20214;-54
2023/01/30 20:48:31;;;;;;;17.10;3.70;;;8.10;75.90;;;10.95;52.63;101734.06;5051019;28;20293;-51
2023/01/30 20:51:02;;;;;;;15.00;3.77;;;8.10;76.00;;;10.96;52.67;101734.91;5050524;28;20194;-57
2023/01/30 20:53:30;;;;;;;11.03;3.20;;;8.10;76.10;;;10.97;52.91;101726.84;5051059;28;20196;-52
2023/01/30 20:55:58;;;;;;;15.07;3.83;;;8.10;76.10;;;10.98;53.07;101738.22;5050303;28;20655;-57
2023/01/30 20:58:26;;;;;;;19.33;4.50;;;8.10;76.30;;;10.97;52.64;101736.53;5050661;28;20206;-54
2023/01/30 21:00:53;;;;;;;12.70;4.27;;;8.10;76.30;;;10.94;53.01;101735.03;5050326;28;20565;-54
2023/01/30 21:03:24;;;;;;;15.77;5.10;;;8.10;76.10;;;10.92;52.74;101738.81;5050613;28;20629;-54
2023/01/30 21:05:56;;;;;;;12.37;4.37;;;8.10;76.30;;;10.87;52.73;101740.09;5049926;28;20316;-53
2023/01/30 21:08:25;;;;;;;20.83;4.77;;;8.00;76.30;;;10.83;53.20;101744.00;5050374;28;20221;-52
2023/01/30 21:10:54;;;;;;;12.20;4.43;;;8.00;76.40;;;10.81;52.89;101737.25;5050423;28;20186;-54
2023/01/30 21:13:21;;;;;;;12.63;4.00;;;8.00;76.60;;;10.79;52.66;101734.75;5049657;28;20198;-54
2023/01/30 21:15:48;;;;;;;12.73;3.20;;;7.90;76.60;;;10.79;52.94;101742.63;5048563;28;20545;-53
2023/01/30 21:18:14;;;;;;;20.07;4.73;;;7.90;77.10;;;10.82;53.31;101744.16;5038154;28;20214;-53
2023/01/30 21:20:48;;;;;;;18.10;4.77;;;7.90;77.10;;;10.83;53.33;101761.63;5038055;28;20214;-53
2023/01/30 21:23:15;;;;;;;18.27;4.50;;;7.90;77.90;;;10.87;53.28;101755.06;5038157;28;20256;-52
2023/01/30 21:25:42;;;;;;;14.63;4.40;;;8.00;77.50;;;10.93;53.59;101758.91;5040625;28;20210;-52
2023/01/30 21:28:11;;;;;;;15.20;4.07;;;8.00;77.60;;;10.98;53.83;101770.66;5040536;28;20218;-54
2023/01/30 21:30:37;;;;;;;11.60;3.60;;;8.10;77.60;;;11.06;53.52;101780.41;5042893;28;20222;-53
2023/01/30 21:33:05;;;;;;;11.50;3.83;;;8.10;77.60;;;11.11;53.13;101770.25;5040910;28;20195;-53
2023/01/30 21:35:32;;;;;;;18.77;4.20;;;8.20;78.40;;;11.12;53.63;101787.72;5040317;28;20209;-54
2023/01/30 21:43:36;;;;;;;11.43;3.53;;;8.20;79.40;;;11.01;54.74;101780.03;5036663;28;20214;-54
2023/01/30 21:46:03;;;;;;;13.23;4.37;;;8.20;79.10;;;10.95;54.40;101791.19;5036322;28;20609;-55
2023/01/30 21:48:30;;;;;;;15.60;4.30;;;8.20;79.00;;;10.86;54.67;101785.81;5036528;28;20237;-54
2023/01/30 21:50:57;;;;;;;17.27;4.63;;;8.10;79.10;;;10.85;54.58;101797.34;5038294;28;20682;-52
2023/01/30 21:53:25;;;;;;;15.47;3.97;;;8.10;80.10;;;10.85;54.82;101799.16;5037830;28;20190;-53
2023/01/30 21:55:52;;;;;;;15.10;4.40;;;8.00;79.40;;;10.84;55.06;101798.31;5037571;28;20187;-53
2023/01/30 21:58:19;;;;;;;15.53;3.93;;;8.00;79.60;;;10.87;55.02;101799.84;5037104;28;20282;-52
2023/01/30 22:00:47;;;;;;;10.73;3.70;;;8.00;79.60;;;10.88;54.58;101804.97;5037511;28;20198;-51
2023/01/30 22:03:14;;;;;;;13.70;4.40;;;8.00;79.40;;;10.89;54.99;101793.44;5037494;28;20194;-55
2023/01/30 22:05:44;;;;;;;13.40;4.53;;;8.00;79.20;;;10.94;54.58;101794.78;5035946;28;20214;-54
2023/01/30 22:08:11;;;;;;;15.20;3.80;;;8.10;79.10;;;10.96;54.38;101798.13;5035479;28;20634;-53
2023/01/30 22:10:38;;;;;;;17.50;4.40;;;8.10;78.80;;;10.96;54.18;101798.91;5043874;28;20210;-52
2023/01/30 22:13:04;;;;;;;9.87;3.17;;;8.10;78.80;;;10.98;54.20;101799.63;5056243;28;20195;-52
2023/01/30 22:15:32;;;;;;;12.50;3.87;;;8.10;78.70;;;10.96;53.73;101793.66;5055400;28;20205;-53
2023/01/30 22:18:02;;;;;;;12.43;4.60;;;8.10;78.40;;;10.92;54.03;101796.75;5055761;28;20213;-55
2023/01/30 22:20:29;;;;;;;11.40;3.40;;;8.00;78.00;;;10.86;54.10;101799.00;5056541;28;20190;-54
2023/01/30 22:22:56;;;;;;;14.23;3.43;;;8.00;77.80;;;10.81;54.35;101796.00;5041030;28;20203;-52
2023/01/30 22:25:23;;;;;;;13.10;3.40;;;8.00;77.80;;;10.78;54.19;101801.56;5036601;28;20214;-53
2023/01/30 22:27:49;;;;;;;9.80;3.27;;;8.00;77.80;;;10.77;53.89;101796.44;5036085;28;20210;-57
2023/01/30 22:30:17;;;;;;;14.60;4.53;;;7.90;77.60;;;10.77;53.61;101805.16;5036398;28;20689;-52
2023/01/30 22:32:44;;;;;;;16.27;4.30;;;7.90;77.70;;;10.77;53.93;101809.59;5036461;28;20206;-54
2023/01/30 22:35:12;;;;;;;14.70;4.30;;;7.90;77.60;;;10.77;53.46;101810.44;5035257;28;20249;-53
2023/01/30 22:37:39;;;;;;;12.27;3.97;;;7.90;77.40;;;10.74;53.51;101802.81;5035061;28;20218;-54
2023/01/30 22:40:08;;;;;;;13.43;4.37;;;7.90;77.00;;;10.78;53.61;101812.09;5035857;28;20210;-53
2023/01/30 22:42:35;;;;;;;13.53;4.47;;;7.80;76.80;;;10.81;53.21;101806.53;5034840;28;20258;-54
2023/01/30 22:45:02;;;;;;;12.23;3.93;;;7.90;76.80;;;10.84;53.00;101822.03;5034966;28;20260;-52
2023/01/30 22:47:29;;;;;;;11.90;4.10;;;7.90;76.40;;;10.89;52.67;101840.00;5036116;28;20191;-52
2023/01/30 22:49:56;;;;;;;14.50;3.73;;;7.90;76.40;;;10.91;52.57;101839.88;5034487;28;20195;-55
2023/01/30 22:52:25;;;;;;;15.40;4.17;;;7.90;76.40;;;10.93;52.90;101851.09;5035380;28;20194;-53
2023/01/30 22:54:52;;;;;;;13.07;4.17;;;8.00;77.00;;;10.93;53.37;101851.94;5035092;28;20221;-52
2023/01/30 22:57:19;;;;;;;10.70;3.30;;;8.00;77.10;;;10.92;53.31;101841.53;5035254;28;20281;-52
2023/01/30 22:59:46;;;;;;;11.10;3.17;;;8.00;76.90;;;10.88;52.85;101828.66;5034746;28;20199;-53
2023/01/30 23:02:13;;;;;;;10.47;3.27;;;8.00;77.00;;;10.83;53.11;101830.91;5034802;28;20190;-52
2023/01/30 23:04:39;;;;;;;9.57;3.03;;;8.00;76.90;;;10.78;53.09;101833.16;5022897;28;20639;-52
2023/01/30 23:07:09;;;;;;;10.30;3.53;;;8.00;76.70;;;10.74;53.03;101836.25;5034489;28;20194;-52
2023/01/30 23:09:37;;;;;;;13.20;3.80;;;7.90;76.50;;;10.72;53.23;101832.94;5034658;28;20210;-52
2023/01/30 23:14:50;;;;;;;13.63;3.80;;;7.90;76.50;;;10.64;53.53;101833.69;5034769;28;20194;-51
2023/01/30 23:20:05;;;;;;;11.23;3.60;;;7.90;76.90;;;10.67;53.40;101835.19;5035406;28;20186;-56
2023/01/30 23:22:32;;;;;;;17.63;4.63;;;7.90;77.00;;;10.67;53.33;101841.25;5037144;28;20291;-53
2023/01/30 23:25:00;;;;;;;14.60;3.67;;;7.80;76.90;;;10.68;53.16;101837.66;5037736;28;20221;-53
2023/01/30 23:27:27;;;;;;;14.97;3.93;;;7.80;77.70;;;10.68;53.82;101844.72;5038331;28;20187;-54
2023/01/30 23:29:54;;;;;;;13.13;3.87;;;7.80;77.30;;;10.65;53.55;101832.69;5037742;28;20198;-54
2023/01/30 23:32:22;;;;;;;11.53;3.80;;;7.80;77.30;;;10.63;53.06;101847.81;5036278;28;20198;-53
2023/01/30 23:34:49;;;;;;;12.17;4.33;;;7.80;77.30;;;10.57;53.33;101851.03;5034757;28;20669;-52
2023/01/30 23:37:16;;;;;;;14.57;3.97;;;7.70;77.20;;;10.51;53.91;101851.59;5033435;28;20213;-54
2023/01/30 23:39:44;;;;;;;17.10;3.23;;;7.70;77.20;;;10.47;53.71;101845.00;5034181;28;20205;-52
2023/01/30 23:42:12;;;;;;;12.50;3.40;;;7.60;77.40;;;10.43;54.03;101854.16;5034212;28;20194;-50
2023/01/30 23:44:39;;;;;;;13.87;3.50;;;7.60;77.50;;;10.38;53.92;101853.75;5033640;28;20206;-53
2023/01/30 23:47:06;;;;;;;14.10;3.97;;;7.60;77.50;;;10.35;53.51;101854.03;5034196;28;20195;-53
2023/01/30 23:49:33;;;;;;;9.20;3.93;;;7.60;77.50;;;10.31;53.70;101850.06;5034240;28;20219;-52
2023/01/30 23:52:00;;;;;;;11.63;3.77;;;7.50;77.50;;;10.28;53.95;101841.63;5034389;28;20194;-51
2023/01/30 23:54:27;;;;;;;9.57;3.00;;;7.50;77.60;;;10.26;53.83;101846.19;5035666;28;20202;-54
2023/01/30 23:56:54;;;;;;;10.27;2.87;;;7.40;77.80;;;10.22;54.02;101843.03;5035178;28;20213;-51
2023/01/30 23:59:22;;;;;;;13.93;3.20;;;7.40;77.90;;;10.24;54.71;101841.09;5034755;28;20679;-53
